createdAt,value
2018-02-07T11:56:02.966Z,7.00
2018-02-07T11:57:05.597Z,8.50
2018-02-07T12:00:13.062Z,8.60
2018-02-07T12:02:42.602Z,8.40
2018-02-07T12:03:42.593Z,8.70
2018-02-07T12:05:36.037Z,8.80
2018-02-07T12:06:35.977Z,8.40
2018-02-07T12:08:29.358Z,8.70
2018-02-07T12:09:29.366Z,10.50
2018-02-07T12:11:22.311Z,13.10
2018-02-07T12:12:22.247Z,13.60
2018-02-07T12:14:15.416Z,14.70
2018-02-07T12:15:15.404Z,16.40
2018-02-07T12:17:08.847Z,16.20
2018-02-07T12:18:08.868Z,16.00
2018-02-07T12:20:02.154Z,16.70
2018-02-07T12:21:02.155Z,16.20
2018-02-07T12:22:55.572Z,17.10
2018-02-07T12:23:55.526Z,17.60
2018-02-07T12:25:48.400Z,16.50
2018-02-07T12:26:48.386Z,16.60
2018-02-07T12:28:41.320Z,16.30
2018-02-07T12:29:41.261Z,16.90
2018-02-07T12:31:34.638Z,17.90
2018-02-07T12:32:34.631Z,17.90
2018-02-07T12:34:27.566Z,15.90
2018-02-07T12:35:27.501Z,15.30
2018-02-07T12:37:20.386Z,13.50
2018-02-07T12:38:20.392Z,12.80
2018-02-07T12:41:14.054Z,13.00
2018-02-07T12:43:06.941Z,12.60
2018-02-07T12:44:06.944Z,12.00
2018-02-07T12:46:00.343Z,11.10
2018-02-07T12:47:00.337Z,11.20
2018-02-07T12:48:53.680Z,11.40
2018-02-07T12:49:53.695Z,11.40
2018-02-07T12:51:46.843Z,10.70
2018-02-07T12:52:46.789Z,10.30
2018-02-07T12:54:39.953Z,10.60
2018-02-07T12:55:39.948Z,10.40
2018-02-07T12:57:33.666Z,9.80
2018-02-07T12:58:33.637Z,9.80
2018-02-07T13:00:26.494Z,10.10
2018-02-07T13:01:26.538Z,9.60
2018-02-07T13:03:19.917Z,9.50
2018-02-07T13:04:19.855Z,9.80
2018-02-07T13:06:12.798Z,9.20
2018-02-07T13:07:12.824Z,10.60
2018-02-07T13:09:06.742Z,9.60
2018-02-07T13:10:06.671Z,10.20
2018-02-07T13:12:00.039Z,9.90
2018-02-07T13:13:00.037Z,10.00
2018-02-07T13:14:54.488Z,9.80
2018-02-07T13:17:47.313Z,9.20
2018-02-07T13:18:47.284Z,9.50
2018-02-07T13:20:40.202Z,9.40
2018-02-07T13:21:40.152Z,9.30
2018-02-07T13:23:33.033Z,9.50
2018-02-07T13:24:33.021Z,9.00
2018-02-07T13:26:27.064Z,10.10
2018-02-07T13:27:26.866Z,9.50
2018-02-07T13:29:19.746Z,9.00
2018-02-07T13:30:19.732Z,9.40
2018-02-07T13:32:13.154Z,8.80
2018-02-07T13:33:13.105Z,9.10
2018-02-07T13:35:06.269Z,8.90
2018-02-07T13:36:06.261Z,9.10
2018-02-07T13:37:59.212Z,9.80
2018-02-07T13:38:59.164Z,8.70
2018-02-07T13:43:45.971Z,9.00
2018-02-07T13:44:46.096Z,9.10
2018-02-07T13:46:38.807Z,8.30
2018-02-07T13:47:38.795Z,8.50
2018-02-07T13:49:31.735Z,9.10
2018-02-07T13:50:31.693Z,8.90
2018-02-07T13:52:24.872Z,9.50
2018-02-07T13:53:24.875Z,9.00
2018-02-07T13:55:18.319Z,8.70
2018-02-07T13:59:04.079Z,8.00
2018-02-07T14:01:57.837Z,8.70
2018-02-07T14:04:51.100Z,9.10
2018-02-07T14:05:51.101Z,8.60
2018-02-07T14:07:44.022Z,8.40
2018-02-07T14:08:34.860Z,9.20
2018-02-07T14:09:34.886Z,8.20
